• Join FlightAware (Why Join?)
  • Login
  • US Flag 
06:24AM EDT


 

Airport Tracker/Info


-or-


 

Live Flight TrackerFlight Track Log ✈ FSR411 ✈ 05-Nov-2013 ✈ KGRB - KCMI

Flight Track Log - Related Links

Times and Time Zones

All times are in EST time to prevent confusion due to time zone crossing. See the FSR411 flight status page for this flight to view local times or setup timezone preferences in your user account.

Time Position Orientation Groundspeed Altitude Reporting Facility
EST Latitude Longitude Course Direction KTS MPH feet Rate Location/Type
01:42AM 44.4714 -88.1664 181° South 175 201 26,000  Level Minneapolis Center
01:43AM 44.4225 -88.1967 204° Southwest 221 254 5,500 -8,700 Descending Minneapolis Center
01:44AM 44.3533 -88.1939 178° South 238 274 8,700 3,000 Climbing Minneapolis Center
01:46AM 44.2722 -88.1939 180° South 282 325 11,600 2,880 Climbing Minneapolis Center
01:47AM 44.1744 -88.1944 180° South 342 394 14,600 3,300 Climbing Minneapolis Center
01:48AM 43.5508 -88.1626 181° South  Level Estimated
01:48AM 44.0664 -88.1967 181° South 382 440 18,300  Level Minneapolis Center
01:49AM 43.9600 -88.1992 181° South 384 442 22,100 3,180 Climbing Minneapolis Center
01:50AM 43.8494 -88.2022 181° South 393 452 24,800 1,920 Climbing Minneapolis Center
01:51AM 43.7339 -88.2042 181° South 409 471 26,000 600 Climbing Minneapolis Center
01:52AM 43.6092 -88.2067 181° South 436 502 26,000  Level Minneapolis Center
01:53AM 43.4875 -88.2094 181° South 433 498 26,000  Level Minneapolis Center
01:54AM 43.3675 -88.2128 181° South 426 490 26,000  Level Minneapolis Center
01:55AM 43.2494 -88.2158 181° South 421 484 26,000  Level Minneapolis Center
01:56AM 43.1317 -88.2181 181° South 420 483 26,000  Level Minneapolis Center
01:57AM 42.9697 -88.2208 181° South 417 480 26,000  Level Chicago Center
01:58AM 42.8533 -88.2228 181° South 416 479 26,000  Level Chicago Center
01:59AM 42.7361 -88.2269 181° South 421 484 26,000  Level Chicago Center
02:00AM 42.6208 -88.2294 181° South 417 480 26,000  Level Chicago Center
02:01AM 42.5044 -88.2311 181° South 418 481 26,000  Level Chicago Center
02:02AM 42.3653 -88.2339 181° South 417 480 26,000  Level Chicago Center
02:03AM 42.2694 -88.2364 181° South 417 480 26,000  Level Chicago Center
02:04AM 42.1550 -88.2381 181° South 415 478 26,000  Level Chicago Center
02:05AM 42.0392 -88.2403 181° South 416 479 26,000  Level Chicago Center
02:06AM 41.9003 -88.2436 181° South 417 480 26,000  Level Chicago Center
02:07AM 41.7856 -88.2456 181° South 416 479 26,000  Level Chicago Center
02:08AM 41.6703 -88.2472 181° South 417 480 26,000  Level Chicago Center
02:09AM 41.5561 -88.2494 181° South 417 480 26,000  Level Chicago Center
02:10AM 41.4428 -88.2525 181° South 417 480 26,000 -300 Level Chicago Center
02:11AM 41.3303 -88.2542 181° South 415 478 25,400 -1,200 Descending Chicago Center
02:12AM 41.2194 -88.2558 181° South 407 468 23,600 -2,100 Descending Chicago Center
02:13AM 41.1108 -88.2581 181° South 397 457 21,200 -2,460 Descending Chicago Center
02:14AM 41.0025 -88.2611 181° South 392 451 18,700 -2,280 Descending Chicago Center
02:15AM 40.9000 -88.2800 188° South 379 436 16,700 -2,100 Descending Chicago Center
02:16AM 40.8028 -88.2956 187° South 362 417 14,500 -2,220 Descending Chicago Center
02:17AM 40.7061 -88.3122 187° South 354 407 12,300 -1,740 Descending Chicago Center
02:18AM 40.6233 -88.3272 188° South 313 360 11,100 -1,440 Descending Chicago Center
02:19AM 40.5475 -88.3397 187° South 285 328 9,400 -1,800 Descending Chicago Center
02:20AM 40.4742 -88.3511 187° South 270 311 7,500 -1,920 Descending Chicago Center